Vaaraa aiheuttavia sääilmiöitä ei ole odotettavissa.    Ei varoituksia

Webkamera Lisätietoa Webcam


Yksityisiä sääasemia lähellä:

Sääasema Juupajoki

Sääasema Orivesi

Sääasema Muurame

Sääasema Jyväskylä

Sääasema Vihtavuori


Löydät sääaseman tiedot myös:

Finland Weather Exchange

European Weather Network

Weather Underground

AWEKAS

Windy.com



Säätiedot lähimmiltä METAR asemilta

   
EFHA - Halli (Fin-Afb), Finland
Etäisyys asemalta: Kaakko 25 km
Päivitetty: 28.11.2020 09:50
Pilvistä  
Pilvistä  
   Tuuli: Itäkoillinen 2.1 m/s
Tuuli: Itäkoillinen 2.1 m/s
Lämpötila: -1°C
Tuulen hyytävyys: -4°C
Kastepiste: -4°C
Kosteus: 80%
Ilmanpaine: 1027 hPa
Pilvisyys: Pilvistä
Näkyvyys: Enemmän kuin 10 km
Pilvitiedot: Pilvistä 488 m
EFHA 280750Z AUTO 07004KT 030V100 9999 OVC016 M01/M04 Q1027
EFJY - Jyvaskyla (Mil/Civ), Finland
Etäisyys asemalta: Koillinen 75 km
Päivitetty: 28.11.2020 09:50
Pilvistä  
Pilvistä  
   Tuuli: Itä 1.5 m/s
Tuuli: Itä 1.5 m/s
Lämpötila: -1°C
Tuulen hyytävyys: -3°C
Kastepiste: -3°C
Kosteus: 86%
Ilmanpaine: 1028 hPa
Pilvisyys: Pilvistä
Näkyvyys: Enemmän kuin 10 km
Pilvitiedot: Pilvistä 549 m
EFJY 280750Z AUTO 08003KT 050V110 9999 OVC018 M01/M03 Q1028
EFTP - Tampere/Pirkkala, Finland
Etäisyys asemalta: Lounas 81 km
Päivitetty: 28.11.2020 09:50
Pilvistä  
Pilvistä  
   Tuuli: Pohjoiskoillinen 3.1 m/s
Tuuli: Pohjoiskoillinen 3.1 m/s
Lämpötila: -1°C
Tuulen hyytävyys: -5°C
Kastepiste: -3°C
Kosteus: 86%
Ilmanpaine: 1027 hPa
Pilvisyys: Pilvistä
Näkyvyys: Enemmän kuin 10 km
Pilvitiedot: Pilvistä 549 m
EFTP 280750Z AUTO 03006KT 9999 OVC018 M01/M03 Q1027
EFSI - Seinajoki-Ilmajoki, Finland
Etäisyys asemalta: Luode 114 km
Päivitetty: 28.11.2020 09:50
Jäätävää, Sumua, Pilvistä  
Jäätävää, Sumua, Pilvistä  
   Tuuli: Tyyntä
Tuuli: Tyyntä
Lämpötila: -6°C
Kastepiste: -6°C
Kosteus: 100%
Ilmanpaine: 1028 hPa
Pilvisyys: Pilvistä
Näkyvyys: 0 km
Pilvitiedot: Pilvistä 61 m
EFSI 280750Z AUTO 00000KT 0200 FZFG VV002 M06/M06 Q1028
EFMI - Mikkeli, Finland
Etäisyys asemalta: Itäkaakko 147 km
Päivitetty: 28.11.2020 09:50
Heikkoa lumisadetta, Pilvistä  
Heikkoa lumisadetta, Pilvistä  
   Tuuli: Pohjoiskoillinen 0.5 m/s
Tuuli: Pohjoiskoillinen 0.5 m/s
Lämpötila: 0°C
Kastepiste: -1°C
Kosteus: 93%
Ilmanpaine: 1027 hPa
Pilvisyys: Pilvistä
Näkyvyys: Enemmän kuin 10 km
Pilvitiedot: Vähäistä pilvisyyttä 213 m,
Pilvistä 823 m
EFMI 280750Z AUTO 03001KT 9999 -SN FEW007 OVC027 M00/M01 Q1027
EFPO - Pori (Mil/Civ), Finland
Etäisyys asemalta: Länsilounas 154 km
Päivitetty: 28.11.2020 09:50
Pilvistä  
Pilvistä  
   Tuuli: Pohjoinen 1.5 m/s
Tuuli: Pohjoinen 1.5 m/s
Lämpötila: -1°C
Tuulen hyytävyys: -3°C
Kastepiste: -3°C
Kosteus: 86%
Ilmanpaine: 1028 hPa
Pilvisyys: Pilvistä
Näkyvyys: Enemmän kuin 10 km
Pilvitiedot: Pilvistä 549 m
EFPO 280750Z AUTO 01003KT 9999 OVC018 M01/M03 Q1028
EFUT - Utti (Fin-Afb), Finland
Etäisyys asemalta: Kaakko 180 km
Päivitetty: 28.11.2020 09:20
Melkein pilvistä  
Melkein pilvistä  
   Tuuli: Pohjoiskoillinen 2.6 m/s
Tuuli: Pohjoiskoillinen 2.6 m/s
Lämpötila: 0°C
Tuulen hyytävyys: -3°C
Kastepiste: -1°C
Kosteus: 93%
Ilmanpaine: 1026 hPa
Pilvisyys: Melkein pilvistä
Näkyvyys: Enemmän kuin 10 km
Pilvitiedot: Melkein pilvistä 305 m
EFUT 280720Z 03005KT 9999 BKN010 00/M01 Q1026
EFVA - Vaasa, Finland
Etäisyys asemalta: Luode 180 km
Päivitetty: 28.11.2020 09:50
Sumupilvilauttoja, Sumua, Pilvistä  
Sumupilvilauttoja, Sumua, Pilvistä  
   Tuuli: Kaakko 2.1 m/s
Tuuli: Kaakko 2.1 m/s
Lämpötila: -3°C
Tuulen hyytävyys: -6°C
Kastepiste: -4°C
Kosteus: 93%
Ilmanpaine: 1029 hPa
Pilvisyys: Pilvistä
Näkyvyys: 3 km
Pilvitiedot: Pilvistä 61 m
EFVA 280750Z AUTO 14004KT 2500 BCFG VV002 M03/M04 Q1029 REFZUP
EFHK - Helsinki/Vantaa, Finland
Etäisyys asemalta: Etelä 191 km
Päivitetty: 28.11.2020 09:50
Melkein pilvistä  
Melkein pilvistä  
   Tuuli: Pohjoinen 4.6 m/s
Tuuli: Pohjoinen 4.6 m/s
Lämpötila: 1°C
Tuulen hyytävyys: -3°C
Kastepiste: -2°C
Kosteus: 81%
Ilmanpaine: 1026 hPa
Pilvisyys: Melkein pilvistä
Näkyvyys: Enemmän kuin 10 km
Pilvitiedot: Vähäistä pilvisyyttä 427 m,
Melkein pilvistä 457 m
EFHK 280750Z 01009KT 9999 FEW014 BKN015 01/M02 Q1026 TEMPO BKN013

Alkuperäinen skripti  Saratoga-weather.org Sovitettu myös templatelle  Weerstation Leuven

Laitteet joita käytämme:

Sääasema
Davis VP2

Sääasemaohjelma
Cumulus

Sääaseman palvelin
HP ProBook 6460b

Palveluntarjoaja
Radicenter

Davis VP2

Cumulus

HP ProBook 6460b

Radicenter




Flag Counter Cumulus Top Weather Sites